Time;durP1;ratioP1;P1;durP2;ratioP2;P2;SDS_P1;SDS_P2;PMS_P1;PMS_P2;Temp;Humidity;BMP_temperature;BMP_pressure;BME280_temperature;BME280_humidity;BME280_pressure;Samples;Min_cycle;Max_cycle;Signal;HPM_P1;HPM_P2
2023/04/09 00:02:15;;;;;;;12.43;9.17;;;6.70;76.30;;;9.98;48.38;98274.94;5061848;28;20048;-46
2023/04/09 00:04:43;;;;;;;12.30;9.60;;;6.70;76.30;;;9.98;48.17;98288.22;5062217;28;20056;-47
2023/04/09 00:07:11;;;;;;;13.00;9.57;;;6.70;76.30;;;9.97;48.21;98281.22;5064709;28;20048;-46
2023/04/09 00:09:38;;;;;;;13.40;9.63;;;6.70;76.10;;;9.96;48.25;98281.34;5060823;28;20426;-46
2023/04/09 00:12:06;;;;;;;12.40;9.10;;;6.70;75.70;;;9.95;48.27;98279.69;5061063;28;20048;-46
2023/04/09 00:14:33;;;;;;;12.63;9.33;;;6.70;75.70;;;9.94;48.22;98275.34;5062868;28;20048;-46
2023/04/09 00:17:01;;;;;;;12.60;9.97;;;6.60;76.00;;;9.91;48.17;98283.63;5065036;28;20071;-48
2023/04/09 00:19:29;;;;;;;14.37;10.30;;;6.60;76.00;;;9.86;48.43;98276.88;5062729;28;20052;-46
2023/04/09 00:21:56;;;;;;;14.33;9.53;;;6.60;76.20;;;9.86;48.07;98276.03;5060735;28;20048;-50
2023/04/09 00:24:24;;;;;;;13.60;9.33;;;6.60;75.70;;;9.85;48.32;98274.38;5061467;28;20052;-45
2023/04/09 00:26:52;;;;;;;14.00;9.77;;;6.60;75.90;;;9.82;48.19;98274.66;5064238;28;20045;-45
2023/04/09 00:29:19;;;;;;;14.03;10.07;;;6.60;75.80;;;9.80;48.26;98276.63;5062998;28;20036;-46
2023/04/09 00:31:47;;;;;;;13.00;9.87;;;6.50;76.00;;;9.77;48.22;98269.78;5059399;28;20048;-46
2023/04/09 00:34:15;;;;;;;12.27;9.83;;;6.50;76.20;;;9.77;48.31;98271.56;5058641;28;20055;-51
2023/04/09 00:36:42;;;;;;;13.43;9.70;;;6.50;76.50;;;9.74;48.33;98263.88;5064086;28;20421;-46
2023/04/09 00:39:10;;;;;;;13.43;9.93;;;6.50;76.70;;;9.71;48.32;98261.50;5062293;28;20414;-48
2023/04/09 00:41:37;;;;;;;10.53;8.33;;;6.50;76.90;;;9.66;48.80;98256.63;5060709;28;20063;-49
2023/04/09 00:44:05;;;;;;;12.53;9.03;;;6.40;76.80;;;9.62;48.63;98260.53;5058754;28;20064;-47
2023/04/09 00:46:32;;;;;;;12.90;9.57;;;6.40;77.00;;;9.61;48.67;98261.50;5062726;28;20064;-46
2023/04/09 00:49:00;;;;;;;13.87;9.43;;;6.40;77.20;;;9.61;48.71;98258.84;5037746;28;20398;-50
2023/04/09 00:51:28;;;;;;;15.80;10.47;;;6.40;77.20;;;9.61;48.75;98261.50;5060550;28;20048;-46
2023/04/09 00:53:55;;;;;;;14.47;9.63;;;6.30;76.90;;;9.57;48.58;98260.09;5058404;28;20045;-47
2023/04/09 00:56:23;;;;;;;14.63;10.97;;;6.30;76.80;;;9.53;48.63;98264.03;5060697;28;20041;-48
2023/04/09 00:58:51;;;;;;;15.37;10.83;;;6.20;77.00;;;9.52;48.75;98257.00;5061935;28;20059;-48
2023/04/09 01:01:19;;;;;;;15.67;11.07;;;6.20;77.50;;;9.51;48.82;98260.66;5061736;28;20055;-46
2023/04/09 01:03:47;;;;;;;14.67;11.03;;;6.30;77.50;;;9.52;48.71;98270.31;5053938;28;20060;-45
2023/04/09 01:06:32;;;;;;;13.63;10.23;;;6.30;77.60;;;9.53;48.84;98264.03;5058699;28;20442;-45
2023/04/09 01:09:38;;;;;;;14.47;10.60;;;6.30;77.60;;;9.50;48.90;98270.47;5054386;28;20045;-50
2023/04/09 01:12:24;;;;;;;13.83;10.97;;;6.30;77.70;;;9.54;48.78;98265.69;5053685;28;20040;-47
2023/04/09 01:15:09;;;;;;;15.13;11.47;;;6.30;77.50;;;9.53;48.67;98269.34;5056164;28;20045;-48
2023/04/09 01:17:49;;;;;;;15.87;11.67;;;6.30;77.80;;;9.53;48.92;98266.69;5043807;28;20075;-49
2023/04/09 01:20:41;;;;;;;13.27;11.20;;;6.30;77.80;;;9.50;48.94;98262.50;5062230;28;20402;-47
2023/04/09 01:23:29;;;;;;;14.63;10.50;;;6.30;78.40;;;9.53;48.88;98262.19;5053685;28;20059;-45
2023/04/09 01:26:18;;;;;;;14.83;11.50;;;6.20;78.30;;;9.56;49.01;98263.75;5051481;28;20045;-46
2023/04/09 01:28:56;;;;;;;19.30;12.77;;;6.20;78.60;;;9.57;49.02;98262.75;5037507;28;20549;-47
2023/04/09 01:31:44;;;;;;;16.23;12.13;;;6.30;78.80;;;9.58;49.03;98259.13;5059226;28;20044;-49
2023/04/09 01:34:13;;;;;;;17.80;13.03;;;6.40;78.70;;;9.61;49.06;98262.34;5061086;28;20036;-49
2023/04/09 01:36:51;;;;;;;22.00;15.33;;;6.40;78.70;;;9.65;48.98;98261.09;5059714;28;20045;-45
2023/04/09 01:39:18;;;;;;;26.83;17.90;;;6.40;79.60;;;9.64;49.28;98262.06;5058598;28;20048;-51
2023/04/09 01:41:49;;;;;;;27.73;16.87;;;6.30;78.90;;;9.66;49.23;98259.28;5061795;28;20045;-50
2023/04/09 01:44:18;;;;;;;30.73;18.97;;;6.40;78.90;;;9.66;49.26;98262.75;5061526;28;20040;-50
2023/04/09 01:46:47;;;;;;;31.40;18.30;;;6.40;78.70;;;9.68;49.39;98259.97;5051472;28;20044;-48
2023/04/09 01:49:16;;;;;;;22.67;15.67;;;6.40;78.60;;;9.69;49.33;98261.63;5057939;28;20306;-47
2023/04/09 01:51:46;;;;;;;22.13;14.47;;;6.40;78.90;;;9.66;49.62;98262.75;5061178;28;20049;-49
2023/04/09 01:54:15;;;;;;;25.00;16.40;;;6.40;79.80;;;9.65;49.77;98261.09;5060977;28;20048;-46
2023/04/09 01:56:46;;;;;;;23.30;16.67;;;6.40;79.90;;;9.70;49.79;98263.31;5058404;28;20048;-47
2023/04/09 01:59:14;;;;;;;25.13;17.30;;;6.40;79.80;;;9.74;49.72;98264.72;5057809;28;20033;-50
2023/04/09 02:01:58;;;;;;;23.97;16.47;;;6.40;79.80;;;9.74;49.51;98264.72;5061270;28;20048;-47
2023/04/09 02:04:35;;;;;;;20.58;13.30;;;6.40;79.70;;;9.71;49.49;98259.66;5060204;28;20045;-48
2023/04/09 02:07:31;;;;;;;19.83;13.43;;;6.40;80.50;;;9.67;49.87;98260.94;5038632;28;20049;-48
2023/04/09 02:10:00;;;;;;;14.13;10.93;;;6.40;80.80;;;9.65;50.00;98253.13;5050078;28;20522;-47
2023/04/09 02:12:32;;;;;;;17.90;12.47;;;6.40;81.20;;;9.63;50.03;98257.75;5060581;28;20037;-50
2023/04/09 02:15:01;;;;;;;15.93;11.43;;;6.40;81.60;;;9.66;50.10;98256.63;5048392;28;20036;-46
2023/04/09 02:17:29;;;;;;;14.80;11.70;;;6.40;81.60;;;9.69;50.13;98256.31;5047240;28;20040;-46
2023/04/09 02:19:57;;;;;;;16.83;12.63;;;6.40;81.50;;;9.69;50.25;98261.63;5061725;28;20049;-46
2023/04/09 02:22:24;;;;;;;17.20;11.57;;;6.40;82.10;;;9.69;50.26;98255.47;5063509;28;20068;-48
2023/04/09 02:24:52;;;;;;;14.57;11.57;;;6.40;82.30;;;9.71;50.00;98257.00;5064345;28;20520;-47
2023/04/09 02:27:19;;;;;;;15.43;11.50;;;6.40;82.00;;;9.76;49.97;98257.44;5066672;28;20240;-46
2023/04/09 02:29:47;;;;;;;15.03;10.13;;;6.50;81.90;;;9.76;50.16;98256.59;5064503;28;20048;-46
2023/04/09 02:32:15;;;;;;;16.77;12.37;;;6.50;81.80;;;9.79;50.14;98251.84;5064862;28;20044;-49
2023/04/09 02:34:43;;;;;;;15.83;12.50;;;6.60;81.70;;;9.79;50.39;98264.28;5061446;28;20092;-46
2023/04/09 02:37:10;;;;;;;14.77;11.80;;;6.60;81.80;;;9.82;50.37;98248.06;5061336;28;20502;-46
2023/04/09 02:39:38;;;;;;;16.07;12.60;;;6.60;82.00;;;9.85;50.28;98248.63;5063275;28;20050;-49
2023/04/09 02:42:06;;;;;;;17.20;12.40;;;6.60;82.00;;;9.87;50.26;98253.81;5064349;28;20528;-46
2023/04/09 02:44:34;;;;;;;13.93;11.20;;;6.60;82.20;;;9.91;50.06;98255.19;5063867;28;20040;-49
2023/04/09 02:47:02;;;;;;;18.30;11.70;;;6.60;82.10;;;9.94;50.26;98260.22;5061201;28;20045;-46
2023/04/09 02:49:30;;;;;;;15.63;11.33;;;6.70;82.10;;;9.97;50.26;98251.97;5062483;28;20521;-45
2023/04/09 02:51:57;;;;;;;16.07;12.40;;;6.70;82.10;;;9.98;50.17;98256.31;5064387;28;20043;-46
2023/04/09 02:54:25;;;;;;;15.03;11.47;;;6.70;82.10;;;10.03;50.38;98253.22;5065228;28;20421;-48
2023/04/09 02:56:52;;;;;;;15.40;11.03;;;6.70;82.10;;;10.03;50.39;98254.03;5062482;28;20372;-47
2023/04/09 02:59:20;;;;;;;16.00;11.07;;;6.70;82.10;;;10.04;50.37;98255.75;5060997;28;20536;-48
2023/04/09 03:01:48;;;;;;;15.83;11.10;;;6.80;82.30;;;10.06;50.58;98250.25;5060850;28;20466;-46
2023/04/09 03:04:15;;;;;;;13.50;11.37;;;6.80;82.50;;;10.08;50.34;98252.78;5060016;28;20049;-48
2023/04/09 03:06:43;;;;;;;14.37;10.47;;;6.80;82.40;;;10.09;50.45;98247.31;5063299;28;20118;-46
2023/04/09 03:09:10;;;;;;;14.83;10.37;;;6.80;82.40;;;10.11;50.47;98247.19;5063215;28;20052;-48
2023/04/09 03:11:38;;;;;;;13.20;10.43;;;6.80;82.50;;;10.09;50.72;98241.16;5061619;28;20048;-48
2023/04/09 03:14:06;;;;;;;16.13;10.77;;;6.80;82.50;;;10.05;50.60;98240.59;5060647;28;20502;-45
2023/04/09 03:16:33;;;;;;;14.00;10.67;;;6.80;82.70;;;10.08;50.52;98236.81;5060978;28;20063;-49
2023/04/09 03:19:01;;;;;;;14.90;10.83;;;6.80;82.90;;;10.10;50.57;98238.38;5064482;28;20039;-46
2023/04/09 03:21:28;;;;;;;14.80;10.83;;;6.80;82.70;;;10.12;50.54;98238.19;5061575;28;20044;-48
2023/04/09 03:23:56;;;;;;;15.93;11.67;;;6.80;82.60;;;10.12;50.49;98240.84;5060566;28;20064;-48
2023/04/09 03:26:23;;;;;;;15.30;11.17;;;6.80;82.50;;;10.11;50.54;98245.34;5058976;28;20072;-49
2023/04/09 03:28:51;;;;;;;15.00;11.07;;;6.80;82.30;;;10.11;50.22;98242.69;5059194;28;20059;-47
2023/04/09 03:31:19;;;;;;;14.97;10.87;;;6.90;82.20;;;10.08;50.58;98237.69;5060574;28;20056;-50
2023/04/09 03:33:47;;;;;;;15.80;10.70;;;6.80;82.20;;;10.08;50.52;98239.47;5062857;28;20040;-47
2023/04/09 03:36:15;;;;;;;17.57;11.23;;;6.80;82.30;;;10.05;50.20;98240.59;5062384;28;20041;-49
2023/04/09 03:39:14;;;;;;;14.20;10.87;;;6.70;82.20;;;10.04;50.37;98236.25;5044444;28;20049;-49
2023/04/09 03:41:43;;;;;;;15.43;11.30;;;6.80;82.50;;;10.00;50.30;98242.84;5061546;28;20076;-49
2023/04/09 03:44:15;;;;;;;15.67;11.10;;;6.70;82.30;;;9.95;50.52;98243.28;5062120;28;20045;-45
2023/04/09 03:46:54;;;;;;;17.60;11.83;;;6.60;82.40;;;9.88;50.34;98234.19;5058929;28;20049;-48
2023/04/09 03:49:22;;;;;;;13.57;10.87;;;6.60;82.70;;;9.83;50.35;98231.13;5058872;28;20049;-48
2023/04/09 03:51:50;;;;;;;15.43;11.17;;;6.50;82.90;;;9.80;50.30;98237.56;5061816;28;20426;-47
2023/04/09 03:54:18;;;;;;;12.50;10.50;;;6.50;82.70;;;9.78;50.64;98233.38;5061857;28;20040;-48
2023/04/09 03:56:46;;;;;;;16.77;11.20;;;6.50;82.80;;;9.76;50.63;98235.34;5059322;28;20049;-48
2023/04/09 03:59:19;;;;;;;16.33;11.87;;;6.50;82.70;;;9.76;50.62;98230.03;5058893;28;20045;-49
2023/04/09 04:01:47;;;;;;;14.77;10.63;;;6.50;83.10;;;9.75;50.55;98228.31;5062919;28;20052;-47
2023/04/09 04:04:15;;;;;;;17.43;10.93;;;6.50;83.20;;;9.74;50.70;98238.13;5057722;28;20060;-47
2023/04/09 04:06:47;;;;;;;15.60;11.27;;;6.40;83.30;;;9.72;50.77;98234.78;5059250;28;20410;-48
2023/04/09 04:09:23;;;;;;;17.40;10.83;;;6.40;83.80;;;9.71;50.64;98240.22;5058585;28;20510;-45
2023/04/09 04:11:57;;;;;;;15.73;11.23;;;6.40;84.10;;;9.74;50.64;98238.13;5015302;28;1031525;-47
2023/04/09 04:14:37;;;;;;;19.50;10.83;;;6.40;83.90;;;9.78;50.69;98234.19;5060262;28;20056;-48
2023/04/09 04:17:15;;;;;;;14.60;11.20;;;6.50;84.00;;;9.80;50.88;98244.72;5062927;28;20433;-48
2023/04/09 04:19:44;;;;;;;15.57;10.83;;;6.50;83.80;;;9.80;50.80;98242.88;5062052;28;20036;-49
2023/04/09 04:22:12;;;;;;;13.07;10.00;;;6.50;84.00;;;9.80;50.65;98237.56;5059625;28;20053;-46
2023/04/09 04:24:43;;;;;;;16.33;11.00;;;6.50;83.70;;;9.83;50.63;98245.25;5059825;28;20526;-48
2023/04/09 04:27:14;;;;;;;14.00;10.60;;;6.50;83.90;;;9.82;50.81;98251.56;5062616;28;20048;-47
2023/04/09 04:29:42;;;;;;;14.60;10.57;;;6.50;84.00;;;9.79;50.96;98251.00;5062271;28;20040;-45
2023/04/09 04:32:27;;;;;;;12.67;9.53;;;6.50;84.50;;;9.82;50.82;98256.03;5058292;28;20052;-47
2023/04/09 04:34:55;;;;;;;15.40;11.03;;;6.50;84.70;;;9.84;51.01;98249.59;5052223;28;20040;-45
2023/04/09 04:37:25;;;;;;;15.80;11.17;;;6.60;84.50;;;9.85;50.98;98245.97;5059269;28;20049;-48
2023/04/09 04:39:57;;;;;;;15.70;12.03;;;6.60;84.20;;;9.89;50.63;98250.97;5051106;28;20410;-46
2023/04/09 04:42:25;;;;;;;15.83;10.60;;;6.60;84.10;;;9.89;50.71;98251.84;5058865;28;20525;-47
2023/04/09 04:44:52;;;;;;;15.47;10.27;;;6.60;84.00;;;9.88;50.89;98251.97;5078549;28;20048;-49
2023/04/09 04:47:34;;;;;;;13.93;10.93;;;6.50;84.00;;;9.86;50.85;98252.94;5047303;28;20453;-46
2023/04/09 04:50:05;;;;;;;16.00;9.87;;;6.50;84.10;;;9.84;50.84;98252.25;5059205;28;20044;-47
2023/04/09 04:52:42;;;;;;;14.13;10.97;;;6.50;84.30;;;9.80;50.81;98252.69;5060216;28;20434;-47
2023/04/09 04:55:10;;;;;;;12.67;10.33;;;6.40;84.50;;;9.78;51.02;98260.78;5061590;28;20041;-47
2023/04/09 04:57:38;;;;;;;12.13;9.67;;;6.40;84.70;;;9.80;50.90;98260.66;5060730;28;20044;-48
2023/04/09 05:00:07;;;;;;;13.60;9.67;;;6.40;84.60;;;9.78;51.00;98258.13;5058282;28;20506;-46
2023/04/09 05:02:36;;;;;;;17.90;10.40;;;6.40;84.60;;;9.75;51.15;98254.91;5059077;28;20076;-47
2023/04/09 05:05:16;;;;;;;14.50;10.70;;;6.40;85.10;;;9.78;51.24;98259.97;5061896;28;20060;-47
2023/04/09 05:07:50;;;;;;;15.75;9.82;;;6.50;85.00;;;9.80;50.79;98264.16;5043961;28;20059;-47
2023/04/09 05:10:18;;;;;;;15.60;10.50;;;6.50;84.90;;;9.82;51.15;98264.00;5058168;28;20414;-45
2023/04/09 05:12:46;;;;;;;16.27;10.90;;;6.50;84.70;;;9.80;50.81;98258.84;5059656;28;20053;-45
2023/04/09 05:15:21;;;;;;;13.40;10.60;;;6.50;84.60;;;9.77;51.02;98256.47;5061876;28;20410;-47
2023/04/09 05:17:49;;;;;;;15.37;9.73;;;6.50;85.00;;;9.78;51.08;98263.44;5060792;28;20040;-46
2023/04/09 05:20:18;;;;;;;14.53;9.63;;;6.50;85.00;;;9.80;51.25;98263.31;5058311;28;20036;-47
2023/04/09 05:22:52;;;;;;;13.53;10.37;;;6.50;85.10;;;9.81;51.18;98260.53;5061050;28;20040;-47
2023/04/09 05:25:27;;;;;;;12.53;9.33;;;6.60;85.10;;;9.80;51.05;98264.16;5061115;28;20071;-45
2023/04/09 05:27:56;;;;;;;13.80;9.40;;;6.50;85.50;;;9.81;51.30;98260.53;5058612;28;20055;-46
2023/04/09 05:30:24;;;;;;;14.80;11.17;;;6.60;85.60;;;9.85;51.38;98266.41;5058188;28;20421;-46
2023/04/09 05:32:53;;;;;;;16.17;10.63;;;6.60;85.30;;;9.85;51.44;98264.56;5060864;28;20052;-48
2023/04/09 05:35:24;;;;;;;12.23;9.63;;;6.60;85.60;;;9.88;51.47;98271.41;5061111;28;20052;-46
2023/04/09 05:37:52;;;;;;;13.83;11.00;;;6.60;85.70;;;9.92;51.35;98275.47;5058852;28;20139;-46
2023/04/09 05:40:20;;;;;;;14.17;9.40;;;6.70;85.40;;;9.96;51.20;98268.06;5057787;28;20036;-48
2023/04/09 05:42:49;;;;;;;15.10;9.40;;;6.70;85.10;;;9.96;51.20;98257.41;5060267;28;20418;-47
2023/04/09 05:45:24;;;;;;;12.77;9.60;;;6.70;85.40;;;9.99;51.25;98259.81;5060983;28;20051;-46
2023/04/09 05:47:53;;;;;;;16.40;10.30;;;6.80;85.50;;;10.01;51.83;98264.00;5058244;28;20067;-46
2023/04/09 05:50:22;;;;;;;13.70;9.80;;;6.80;85.50;;;10.08;51.56;98266.06;5057486;28;20052;-49
2023/04/09 05:52:53;;;;;;;19.50;13.10;;;6.90;85.20;;;10.08;51.22;98258.97;5060652;28;20525;-47
2023/04/09 05:55:22;;;;;;;14.53;10.13;;;6.90;85.30;;;10.10;51.32;98272.94;5061022;28;20437;-45
2023/04/09 05:57:54;;;;;;;18.30;10.90;;;6.90;85.40;;;10.13;51.18;98271.81;5058173;28;20048;-49
2023/04/09 06:00:22;;;;;;;16.47;11.17;;;6.90;85.40;;;10.12;51.38;98271.00;5057163;28;20045;-45
2023/04/09 06:02:50;;;;;;;15.37;11.00;;;6.90;85.70;;;10.16;51.47;98274.19;5059601;28;20522;-48
2023/04/09 06:05:17;;;;;;;18.17;11.07;;;6.90;85.70;;;10.20;51.48;98280.91;5062484;28;20044;-46
2023/04/09 06:07:47;;;;;;;16.40;11.50;;;6.90;85.50;;;10.23;51.24;98281.44;5059110;28;20049;-46
2023/04/09 06:10:14;;;;;;;21.33;12.70;;;7.00;85.40;;;10.25;51.57;98279.50;5057183;28;20049;-47
2023/04/09 06:12:42;;;;;;;14.13;10.07;;;7.00;85.60;;;10.28;51.62;98281.03;5060213;28;20037;-45
2023/04/09 06:15:10;;;;;;;16.47;10.97;;;7.00;85.40;;;10.31;51.33;98274.59;5060898;28;20072;-47
2023/04/09 06:17:37;;;;;;;14.83;10.50;;;7.10;85.20;;;10.32;51.55;98270.97;5060823;28;20056;-49
2023/04/09 06:20:06;;;;;;;15.70;11.00;;;7.10;85.50;;;10.34;51.29;98272.50;5059299;28;20048;-47
2023/04/09 06:22:33;;;;;;;14.40;10.03;;;7.10;85.30;;;10.36;51.55;98270.53;5058932;28;20052;-45
2023/04/09 06:25:01;;;;;;;19.40;12.07;;;7.10;85.40;;;10.38;51.42;98270.38;5050801;28;20045;-48
2023/04/09 06:27:29;;;;;;;17.27;11.37;;;7.10;85.70;;;10.40;51.47;98279.06;5059193;28;20513;-48
2023/04/09 06:29:56;;;;;;;16.17;10.93;;;7.10;85.60;;;10.43;51.76;98276.97;5062208;28;20044;-45
2023/04/09 06:32:24;;;;;;;16.90;10.93;;;7.20;85.90;;;10.47;51.49;98276.66;5062067;28;20041;-47
2023/04/09 06:34:51;;;;;;;18.63;11.13;;;7.20;86.00;;;10.49;51.76;98277.34;5059655;28;20417;-46
2023/04/09 06:37:19;;;;;;;15.70;9.57;;;7.30;86.30;;;10.56;51.58;98278.44;5058926;28;20040;-46
2023/04/09 06:39:46;;;;;;;14.43;9.90;;;7.40;86.10;;;10.60;51.53;98271.84;5059158;28;20051;-48
2023/04/09 06:42:27;;;;;;;14.23;10.97;;;7.40;86.00;;;10.66;51.48;98273.09;5059092;28;20052;-48
2023/04/09 06:45:09;;;;;;;18.23;12.50;;;7.40;86.10;;;10.67;51.45;98280.94;5054938;28;20453;-48
2023/04/09 06:47:36;;;;;;;19.30;11.63;;;7.40;86.30;;;10.71;51.91;98284.97;5057913;28;20045;-47
2023/04/09 06:50:05;;;;;;;15.77;10.97;;;7.50;86.20;;;10.75;51.53;98282.88;5061326;28;20075;-49
2023/04/09 06:52:32;;;;;;;15.63;12.73;;;7.60;86.30;;;10.81;51.68;98301.75;5060821;28;20055;-50
2023/04/09 06:55:00;;;;;;;15.17;10.80;;;7.60;86.10;;;10.82;51.51;98300.78;5062088;28;20394;-49
2023/04/09 06:57:27;;;;;;;17.03;10.60;;;7.70;86.00;;;10.85;51.48;98302.31;5061106;28;20036;-45
2023/04/09 06:59:55;;;;;;;16.73;11.73;;;7.70;86.10;;;10.88;51.89;98290.53;5059822;28;20055;-47
2023/04/09 07:02:22;;;;;;;16.57;11.17;;;7.70;86.30;;;10.88;51.53;98294.03;5061357;28;20033;-50
2023/04/09 07:04:50;;;;;;;16.60;11.83;;;7.70;86.30;;;10.90;51.94;98293.88;5062899;28;20041;-45
2023/04/09 07:07:19;;;;;;;16.87;11.30;;;7.80;86.10;;;10.88;51.99;98299.34;5065102;28;20041;-50
2023/04/09 07:09:48;;;;;;;15.93;11.63;;;7.80;85.70;;;10.85;51.80;98294.31;5063081;28;20044;-49
2023/04/09 07:12:26;;;;;;;14.90;10.50;;;7.80;85.70;;;10.89;52.12;98297.53;5060668;28;20048;-47
2023/04/09 07:15:12;;;;;;;15.50;11.03;;;7.80;85.80;;;10.90;51.84;98300.03;5063169;28;20048;-47
2023/04/09 07:17:39;;;;;;;14.87;10.53;;;7.90;85.70;;;10.93;52.08;98293.56;5064125;28;20040;-46
2023/04/09 07:20:07;;;;;;;16.93;10.63;;;7.80;85.70;;;10.94;51.99;98298.75;5061147;28;20041;-49
2023/04/09 07:22:35;;;;;;;14.20;10.67;;;7.80;85.70;;;10.95;52.17;98297.78;5060700;28;20433;-46
2023/04/09 07:25:03;;;;;;;15.03;11.67;;;7.80;86.00;;;10.99;52.18;98295.63;5060416;28;20445;-45
2023/04/09 07:27:31;;;;;;;14.10;9.37;;;7.90;86.20;;;11.01;51.73;98294.53;5061366;28;20040;-45
2023/04/09 07:29:59;;;;;;;14.43;10.27;;;7.90;86.10;;;11.07;51.80;98294.91;5063619;28;20060;-47
2023/04/09 07:32:27;;;;;;;16.83;11.90;;;7.90;86.10;;;11.10;51.67;98300.78;5064292;28;20516;-50
2023/04/09 07:34:56;;;;;;;16.40;11.97;;;7.90;86.10;;;11.12;51.78;98298.81;5059815;28;20064;-49
2023/04/09 07:37:24;;;;;;;15.43;11.57;;;8.00;86.00;;;11.16;52.10;98289.53;5058450;28;20056;-48
2023/04/09 07:39:52;;;;;;;15.93;11.23;;;8.00;86.00;;;11.22;52.06;98302.28;5062433;28;20045;-48
2023/04/09 07:42:19;;;;;;;16.77;11.90;;;8.10;86.10;;;11.25;51.94;98301.13;5064141;28;20056;-48
2023/04/09 07:44:47;;;;;;;19.43;13.63;;;8.20;86.00;;;11.29;51.97;98305.16;5062360;28;20055;-49
2023/04/09 07:47:15;;;;;;;14.07;11.43;;;8.20;85.50;;;11.33;52.06;98300.38;5060643;28;20049;-47
2023/04/09 07:49:43;;;;;;;14.30;11.07;;;8.30;85.40;;;11.37;52.03;98312.41;5058695;28;20053;-47
2023/04/09 07:52:10;;;;;;;14.43;11.37;;;8.40;85.10;;;11.41;52.23;98311.94;5062114;28;20426;-46
2023/04/09 07:54:38;;;;;;;15.13;12.20;;;8.40;85.10;;;11.45;51.94;98301.00;5063541;28;20432;-46
2023/04/09 07:57:06;;;;;;;18.37;12.00;;;8.50;84.80;;;11.49;51.93;98302.38;5051854;28;20037;-49
2023/04/09 07:59:33;;;;;;;16.03;11.67;;;8.50;84.50;;;11.55;51.94;98304.44;5060115;28;20046;-47
2023/04/09 08:02:01;;;;;;;16.77;12.33;;;8.60;84.30;;;11.58;51.71;98304.16;5063655;28;20431;-46
2023/04/09 08:04:29;;;;;;;15.70;10.50;;;8.60;84.60;;;11.61;51.83;98314.50;5062415;28;20065;-47
2023/04/09 08:06:57;;;;;;;13.57;9.47;;;8.60;84.40;;;11.66;51.15;98317.56;5060303;28;20056;-48
2023/04/09 08:09:24;;;;;;;11.63;9.50;;;8.60;82.50;;;11.69;50.70;98322.59;5059930;28;20060;-47
2023/04/09 08:11:52;;;;;;;14.83;9.87;;;8.60;81.60;;;11.79;50.96;98314.50;5061490;28;20056;-46
2023/04/09 08:14:20;;;;;;;15.53;10.30;;;8.80;80.80;;;12.01;51.08;98318.56;5063141;28;20413;-46
2023/04/09 08:16:48;;;;;;;13.87;10.93;;;9.00;81.30;;;12.25;50.95;98325.09;5062435;28;20429;-46
2023/04/09 08:19:18;;;;;;;15.20;10.53;;;9.30;81.30;;;12.49;50.64;98319.94;5049670;28;20398;-46
2023/04/09 08:21:48;;;;;;;12.57;8.37;;;9.60;80.60;;;12.70;49.36;98326.75;5050737;28;20052;-45
2023/04/09 08:24:16;;;;;;;8.30;6.53;;;9.80;76.90;;;12.85;48.84;98326.97;5066649;28;20290;-46
2023/04/09 08:26:43;;;;;;;9.53;6.73;;;10.00;75.40;;;13.04;48.45;98320.56;5058711;28;20057;-46
2023/04/09 08:29:13;;;;;;;9.17;7.27;;;10.20;73.00;;;13.14;48.32;98327.47;5063327;28;20055;-47
2023/04/09 08:31:41;;;;;;;9.93;6.93;;;10.20;72.00;;;13.24;47.76;98323.81;5061735;28;20056;-46
2023/04/09 08:34:09;;;;;;;10.77;8.57;;;10.30;70.70;;;13.25;47.48;98326.31;5050806;28;20421;-45
2023/04/09 08:36:36;;;;;;;10.90;7.93;;;10.40;70.70;;;13.30;47.08;98324.06;5058378;28;20048;-46
2023/04/09 08:39:04;;;;;;;11.67;7.57;;;10.40;70.20;;;13.37;46.81;98321.56;5062600;28;20043;-49
2023/04/09 08:41:33;;;;;;;8.83;7.17;;;10.50;68.90;;;13.42;46.43;98326.44;5062296;28;20033;-47
2023/04/09 08:44:00;;;;;;;9.80;7.10;;;10.50;68.60;;;13.45;46.22;98323.41;5059876;28;20051;-47
2023/04/09 08:46:28;;;;;;;9.73;7.03;;;10.50;67.50;;;13.48;46.24;98323.09;5060298;28;20495;-46
2023/04/09 08:48:56;;;;;;;9.97;7.10;;;10.60;67.80;;;13.54;45.40;98319.78;5060433;28;20053;-48
2023/04/09 08:51:23;;;;;;;10.20;7.00;;;10.60;66.70;;;13.58;45.55;98316.59;5063911;28;20521;-44
2023/04/09 08:53:59;;;;;;;8.90;6.47;;;10.60;66.10;;;13.61;44.81;98319.94;5059884;28;20045;-46
2023/04/09 08:56:31;;;;;;;7.47;5.00;;;10.70;64.00;;;13.63;44.29;98316.13;5060327;28;20048;-45
2023/04/09 08:58:58;;;;;;;8.00;6.43;;;10.70;63.80;;;13.61;44.49;98315.44;5062335;28;20045;-46
2023/04/09 09:01:30;;;;;;;8.17;5.10;;;10.70;64.00;;;13.66;44.31;98328.31;5063705;28;20037;-47
2023/04/09 09:04:07;;;;;;;9.30;5.83;;;10.80;62.30;;;13.67;43.85;98325.50;5060384;28;20558;-47
2023/04/09 09:06:39;;;;;;;8.33;6.47;;;10.80;61.00;;;13.71;43.39;98323.31;5060195;28;20045;-48
2023/04/09 09:09:15;;;;;;;7.33;5.17;;;10.80;61.20;;;13.73;43.65;98327.50;5063101;28;20052;-45
2023/04/09 09:11:49;;;;;;;5.97;5.03;;;10.80;60.60;;;13.75;43.14;98327.34;5062928;28;20049;-45
2023/04/09 09:14:18;;;;;;;5.80;4.90;;;10.90;59.90;;;13.81;42.98;98329.34;5051121;28;20032;-47
2023/04/09 09:16:55;;;;;;;9.00;6.23;;;10.90;60.60;;;13.88;43.10;98326.84;5059763;28;20045;-45
2023/04/09 09:19:25;;;;;;;6.83;5.77;;;11.00;57.20;;;13.97;42.68;98326.69;5063016;28;20421;-46
2023/04/09 09:21:59;;;;;;;7.77;5.30;;;11.10;59.70;;;14.07;42.65;98317.66;5062016;28;20048;-47
2023/04/09 09:24:27;;;;;;;7.47;6.28;;;11.20;58.70;;;14.13;42.39;98315.16;5059486;28;20045;-45
2023/04/09 09:26:56;;;;;;;6.10;4.70;;;11.30;59.60;;;14.15;40.75;98325.69;5059843;28;20052;-48
2023/04/09 09:29:25;;;;;;;6.85;4.80;;;11.30;56.70;;;14.12;41.17;98328.72;5060589;28;20037;-48
2023/04/09 09:31:55;;;;;;;6.35;4.72;;;11.20;57.10;;;14.11;40.49;98316.31;5060094;28;20059;-47
2023/04/09 09:34:24;;;;;;;6.73;4.87;;;11.20;56.00;;;14.12;40.41;98320.69;5057805;28;20081;-46
2023/04/09 09:36:52;;;;;;;7.23;4.97;;;11.30;56.10;;;14.11;40.56;98327.03;5058245;28;20494;-50
2023/04/09 09:39:21;;;;;;;11.67;6.60;;;11.30;55.90;;;14.14;40.66;98324.84;5061900;28;20036;-46
2023/04/09 09:42:07;;;;;;;8.53;5.97;;;11.30;57.40;;;14.16;40.81;98330.06;5061560;28;20059;-48
2023/04/09 09:44:34;;;;;;;8.90;6.50;;;11.30;53.50;;;14.22;40.94;98333.91;5056737;28;20044;-48
2023/04/09 09:47:03;;;;;;;12.18;7.82;;;11.30;57.00;;;14.31;40.66;98324.88;5060796;28;20072;-50
2023/04/09 09:49:31;;;;;;;11.65;7.40;;;11.40;56.60;;;14.44;40.25;98319.81;5061872;28;20508;-47
2023/04/09 09:52:02;;;;;;;7.65;5.57;;;11.50;56.40;;;14.57;40.18;98316.66;5060295;28;20036;-46
2023/04/09 09:54:41;;;;;;;11.65;6.95;;;11.60;55.80;;;14.65;39.85;98321.16;5057979;28;20041;-54
2023/04/09 09:57:12;;;;;;;8.45;5.32;;;11.70;53.60;;;14.70;39.98;98318.81;5040855;28;20037;-48
2023/04/09 09:59:46;;;;;;;9.93;5.88;;;11.80;55.70;;;14.76;39.45;98321.63;5057613;28;20052;-51
2023/04/09 10:02:19;;;;;;;10.10;6.63;;;11.90;54.40;;;14.85;39.60;98319.78;5049799;28;20041;-49
2023/04/09 10:04:51;;;;;;;11.07;6.63;;;11.90;52.70;;;14.93;39.26;98329.66;5049618;28;20049;-50
2023/04/09 10:07:21;;;;;;;14.30;8.90;;;11.90;53.90;;;14.99;39.21;98322.75;5058502;28;20055;-47
2023/04/09 10:09:50;;;;;;;13.23;7.55;;;12.00;54.50;;;15.08;39.09;98319.00;5058460;28;20044;-50
2023/04/09 10:12:24;;;;;;;11.70;7.72;;;12.10;54.10;;;15.16;38.61;98321.69;5060356;28;20444;-50
2023/04/09 10:14:54;;;;;;;8.45;5.95;;;12.20;52.40;;;15.20;38.56;98317.66;5059582;28;20056;-48
2023/04/09 10:17:21;;;;;;;11.23;7.00;;;12.20;53.00;;;15.26;37.96;98321.47;5057176;28;20041;-47
2023/04/09 10:20:57;;;;;;;10.23;6.97;;;12.30;52.40;;;15.30;38.50;98323.63;5058100;28;20049;-46
2023/04/09 10:23:43;;;;;;;12.15;7.20;;;12.40;48.60;;;15.39;38.01;98316.34;5033114;28;20510;-47
2023/04/09 10:26:11;;;;;;;9.15;6.20;;;12.40;49.50;;;15.42;37.32;98307.97;5043575;28;20572;-49
2023/04/09 10:28:39;;;;;;;9.75;5.72;;;12.50;50.70;;;15.44;36.87;98313.16;5061763;28;20052;-49
2023/04/09 10:31:07;;;;;;;10.35;6.72;;;12.60;50.20;;;15.53;36.59;98312.13;5058268;28;20053;-50
2023/04/09 10:33:38;;;;;;;8.88;5.22;;;12.60;48.80;;;15.61;36.22;98311.22;5065922;28;20040;-48